Millarton, North Dakota
Current Conditions -  °F | °C
As of 6:56 AM on Thursday 27 Nov 2014 (Local Time) from KJMS Reporting Station
Clear Clear  
Wind Chill: -38°   Ceiling: Unl
Heat Index: -22°   Visibility: 10mi
Dew Point: -29°   Wind: 6mph
Humidity: 70%   Direction: 180°S
Pressure: 30.42"   Gusts: NA
Location:  46.6526°N, 98.6214°W
Report Text: KJMS 271256Z AUTO 18005KT 10SM CLR M30/M34 A3042 RMK AO2 SLP361 T13001339
Loading
Personal Weather Stations






























Interactive Weather Map New forecast layout! Learn more

10-Day Weather Forecast

Advertisements
Track Severe Weather on mobile